sensor_id;sensor_type;location;lat;lon;timestamp;P1;durP1;ratioP1;P2;durP2;ratioP2
10699;SDS011;5401;41.986;21.452;2023-04-25T00:00:18;17.17;;;9.70;;
10699;SDS011;5401;41.986;21.452;2023-04-25T00:02:46;14.73;;;9.47;;
10699;SDS011;5401;41.986;21.452;2023-04-25T00:05:14;15.50;;;9.13;;
10699;SDS011;5401;41.986;21.452;2023-04-25T00:07:42;12.63;;;8.43;;
10699;SDS011;5401;41.986;21.452;2023-04-25T00:10:11;13.80;;;8.43;;
10699;SDS011;5401;41.986;21.452;2023-04-25T00:12:39;21.03;;;10.27;;
10699;SDS011;5401;41.986;21.452;2023-04-25T00:15:07;12.30;;;10.73;;
10699;SDS011;5401;41.986;21.452;2023-04-25T00:17:36;15.57;;;11.47;;
10699;SDS011;5401;41.986;21.452;2023-04-25T00:20:05;12.00;;;9.77;;
10699;SDS011;5401;41.986;21.452;2023-04-25T00:22:35;17.00;;;11.20;;
10699;SDS011;5401;41.986;21.452;2023-04-25T00:25:04;18.17;;;11.43;;
10699;SDS011;5401;41.986;21.452;2023-04-25T00:27:33;14.00;;;11.37;;
10699;SDS011;5401;41.986;21.452;2023-04-25T00:30:01;13.90;;;10.47;;
10699;SDS011;5401;41.986;21.452;2023-04-25T00:32:29;19.20;;;11.40;;
10699;SDS011;5401;41.986;21.452;2023-04-25T00:34:56;12.83;;;10.77;;
10699;SDS011;5401;41.986;21.452;2023-04-25T00:37:24;11.87;;;10.60;;
10699;SDS011;5401;41.986;21.452;2023-04-25T00:39:52;14.93;;;10.90;;
10699;SDS011;5401;41.986;21.452;2023-04-25T00:42:21;11.13;;;9.90;;
10699;SDS011;5401;41.986;21.452;2023-04-25T00:44:50;13.20;;;11.80;;
10699;SDS011;5401;41.986;21.452;2023-04-25T00:47:19;13.17;;;11.77;;
10699;SDS011;5401;41.986;21.452;2023-04-25T00:49:47;16.93;;;11.87;;
10699;SDS011;5401;41.986;21.452;2023-04-25T00:52:14;14.73;;;12.93;;
10699;SDS011;5401;41.986;21.452;2023-04-25T00:54:42;15.20;;;13.60;;
10699;SDS011;5401;41.986;21.452;2023-04-25T00:57:10;16.63;;;13.60;;
10699;SDS011;5401;41.986;21.452;2023-04-25T00:59:37;15.43;;;13.30;;
10699;SDS011;5401;41.986;21.452;2023-04-25T01:02:06;14.73;;;13.23;;
10699;SDS011;5401;41.986;21.452;2023-04-25T01:04:34;15.83;;;13.57;;
10699;SDS011;5401;41.986;21.452;2023-04-25T01:07:02;16.67;;;13.30;;
10699;SDS011;5401;41.986;21.452;2023-04-25T01:09:29;18.73;;;13.33;;
10699;SDS011;5401;41.986;21.452;2023-04-25T01:11:57;16.23;;;13.10;;
10699;SDS011;5401;41.986;21.452;2023-04-25T01:14:25;14.77;;;12.27;;
10699;SDS011;5401;41.986;21.452;2023-04-25T01:16:53;14.57;;;12.73;;
10699;SDS011;5401;41.986;21.452;2023-04-25T01:19:22;14.37;;;12.87;;
10699;SDS011;5401;41.986;21.452;2023-04-25T01:21:54;15.53;;;12.33;;
10699;SDS011;5401;41.986;21.452;2023-04-25T01:24:22;16.33;;;13.10;;
10699;SDS011;5401;41.986;21.452;2023-04-25T01:26:50;15.43;;;12.23;;
10699;SDS011;5401;41.986;21.452;2023-04-25T01:29:18;17.00;;;12.70;;
10699;SDS011;5401;41.986;21.452;2023-04-25T01:31:46;14.87;;;13.37;;
10699;SDS011;5401;41.986;21.452;2023-04-25T01:34:14;17.07;;;13.63;;
10699;SDS011;5401;41.986;21.452;2023-04-25T01:36:42;15.40;;;13.80;;
10699;SDS011;5401;41.986;21.452;2023-04-25T01:39:11;15.10;;;12.60;;
10699;SDS011;5401;41.986;21.452;2023-04-25T01:41:38;15.77;;;12.23;;
10699;SDS011;5401;41.986;21.452;2023-04-25T01:44:06;15.00;;;13.33;;
10699;SDS011;5401;41.986;21.452;2023-04-25T01:46:33;14.33;;;12.17;;
10699;SDS011;5401;41.986;21.452;2023-04-25T01:49:01;16.53;;;13.10;;
10699;SDS011;5401;41.986;21.452;2023-04-25T01:51:30;15.17;;;13.20;;
10699;SDS011;5401;41.986;21.452;2023-04-25T01:53:58;18.63;;;13.67;;
10699;SDS011;5401;41.986;21.452;2023-04-25T01:56:30;18.43;;;13.17;;
10699;SDS011;5401;41.986;21.452;2023-04-25T01:58:59;16.10;;;14.17;;
10699;SDS011;5401;41.986;21.452;2023-04-25T02:01:26;18.23;;;12.97;;
10699;SDS011;5401;41.986;21.452;2023-04-25T02:03:54;15.50;;;13.63;;
10699;SDS011;5401;41.986;21.452;2023-04-25T02:06:21;15.43;;;13.00;;
10699;SDS011;5401;41.986;21.452;2023-04-25T02:08:49;14.60;;;13.07;;
10699;SDS011;5401;41.986;21.452;2023-04-25T02:11:16;19.87;;;13.57;;
10699;SDS011;5401;41.986;21.452;2023-04-25T02:13:45;16.83;;;14.57;;
10699;SDS011;5401;41.986;21.452;2023-04-25T02:16:13;15.10;;;13.50;;
10699;SDS011;5401;41.986;21.452;2023-04-25T02:18:40;14.63;;;13.13;;
10699;SDS011;5401;41.986;21.452;2023-04-25T02:21:08;16.57;;;12.87;;
10699;SDS011;5401;41.986;21.452;2023-04-25T02:23:37;14.27;;;12.77;;
10699;SDS011;5401;41.986;21.452;2023-04-25T02:26:04;15.47;;;14.00;;
10699;SDS011;5401;41.986;21.452;2023-04-25T02:28:32;14.70;;;13.23;;
10699;SDS011;5401;41.986;21.452;2023-04-25T02:31:01;19.60;;;13.30;;
10699;SDS011;5401;41.986;21.452;2023-04-25T02:33:28;14.57;;;12.93;;
10699;SDS011;5401;41.986;21.452;2023-04-25T02:35:56;15.07;;;13.47;;
10699;SDS011;5401;41.986;21.452;2023-04-25T02:38:23;14.07;;;11.73;;
10699;SDS011;5401;41.986;21.452;2023-04-25T02:40:51;14.87;;;12.60;;
10699;SDS011;5401;41.986;21.452;2023-04-25T02:43:18;13.00;;;11.57;;
10699;SDS011;5401;41.986;21.452;2023-04-25T02:45:46;13.47;;;11.87;;
10699;SDS011;5401;41.986;21.452;2023-04-25T02:48:15;17.00;;;15.10;;
10699;SDS011;5401;41.986;21.452;2023-04-25T02:50:42;16.70;;;12.60;;
10699;SDS011;5401;41.986;21.452;2023-04-25T02:53:10;19.30;;;13.17;;
10699;SDS011;5401;41.986;21.452;2023-04-25T02:55:37;14.77;;;12.10;;
10699;SDS011;5401;41.986;21.452;2023-04-25T02:58:05;14.57;;;12.73;;
10699;SDS011;5401;41.986;21.452;2023-04-25T03:00:33;15.83;;;12.63;;
10699;SDS011;5401;41.986;21.452;2023-04-25T03:03:00;15.20;;;12.17;;
10699;SDS011;5401;41.986;21.452;2023-04-25T03:05:29;14.20;;;12.80;;
10699;SDS011;5401;41.986;21.452;2023-04-25T03:07:57;14.43;;;11.83;;
10699;SDS011;5401;41.986;21.452;2023-04-25T03:10:24;14.00;;;11.77;;
10699;SDS011;5401;41.986;21.452;2023-04-25T03:12:52;14.70;;;12.47;;
10699;SDS011;5401;41.986;21.452;2023-04-25T03:15:19;14.40;;;12.60;;
10699;SDS011;5401;41.986;21.452;2023-04-25T03:17:47;15.17;;;11.73;;
10699;SDS011;5401;41.986;21.452;2023-04-25T03:20:14;14.23;;;12.40;;
10699;SDS011;5401;41.986;21.452;2023-04-25T03:22:43;13.17;;;11.87;;
10699;SDS011;5401;41.986;21.452;2023-04-25T03:25:11;14.83;;;12.67;;
10699;SDS011;5401;41.986;21.452;2023-04-25T03:27:38;14.50;;;13.00;;
10699;SDS011;5401;41.986;21.452;2023-04-25T03:30:06;16.20;;;14.37;;
10699;SDS011;5401;41.986;21.452;2023-04-25T03:32:34;16.50;;;14.50;;
10699;SDS011;5401;41.986;21.452;2023-04-25T03:35:02;17.00;;;15.10;;
10699;SDS011;5401;41.986;21.452;2023-04-25T03:37:31;19.07;;;15.97;;
10699;SDS011;5401;41.986;21.452;2023-04-25T03:39:59;18.43;;;15.07;;
10699;SDS011;5401;41.986;21.452;2023-04-25T03:42:27;18.53;;;15.77;;
10699;SDS011;5401;41.986;21.452;2023-04-25T03:44:55;18.27;;;14.03;;
10699;SDS011;5401;41.986;21.452;2023-04-25T03:47:23;13.93;;;12.23;;
10699;SDS011;5401;41.986;21.452;2023-04-25T03:49:50;13.40;;;12.03;;
10699;SDS011;5401;41.986;21.452;2023-04-25T03:52:18;17.23;;;13.73;;
10699;SDS011;5401;41.986;21.452;2023-04-25T03:54:45;15.97;;;13.83;;
10699;SDS011;5401;41.986;21.452;2023-04-25T03:57:14;15.40;;;13.03;;
10699;SDS011;5401;41.986;21.452;2023-04-25T03:59:41;17.87;;;13.17;;
10699;SDS011;5401;41.986;21.452;2023-04-25T04:02:09;16.40;;;13.80;;
10699;SDS011;5401;41.986;21.452;2023-04-25T04:04:37;20.07;;;13.63;;
10699;SDS011;5401;41.986;21.452;2023-04-25T04:07:04;17.10;;;12.80;;
10699;SDS011;5401;41.986;21.452;2023-04-25T04:09:32;13.17;;;11.73;;
10699;SDS011;5401;41.986;21.452;2023-04-25T04:11:59;13.93;;;11.37;;
10699;SDS011;5401;41.986;21.452;2023-04-25T04:14:28;15.70;;;12.67;;
10699;SDS011;5401;41.986;21.452;2023-04-25T04:16:56;13.30;;;11.50;;
10699;SDS011;5401;41.986;21.452;2023-04-25T04:19:23;14.17;;;12.67;;
10699;SDS011;5401;41.986;21.452;2023-04-25T04:21:51;14.40;;;12.50;;
10699;SDS011;5401;41.986;21.452;2023-04-25T04:24:18;14.10;;;11.37;;
10699;SDS011;5401;41.986;21.452;2023-04-25T04:26:46;18.37;;;13.03;;
10699;SDS011;5401;41.986;21.452;2023-04-25T04:29:13;14.13;;;12.57;;
10699;SDS011;5401;41.986;21.452;2023-04-25T04:31:48;17.80;;;14.80;;
10699;SDS011;5401;41.986;21.452;2023-04-25T04:34:16;16.47;;;13.77;;
10699;SDS011;5401;41.986;21.452;2023-04-25T04:36:44;16.63;;;13.57;;
10699;SDS011;5401;41.986;21.452;2023-04-25T04:39:12;15.23;;;13.63;;
10699;SDS011;5401;41.986;21.452;2023-04-25T04:41:41;14.57;;;12.27;;
10699;SDS011;5401;41.986;21.452;2023-04-25T04:44:09;14.27;;;12.77;;
10699;SDS011;5401;41.986;21.452;2023-04-25T04:46:36;14.17;;;11.13;;
10699;SDS011;5401;41.986;21.452;2023-04-25T04:49:09;14.00;;;11.27;;
10699;SDS011;5401;41.986;21.452;2023-04-25T04:51:36;15.43;;;11.93;;
10699;SDS011;5401;41.986;21.452;2023-04-25T04:54:04;18.77;;;11.23;;
10699;SDS011;5401;41.986;21.452;2023-04-25T04:56:31;15.87;;;11.93;;
10699;SDS011;5401;41.986;21.452;2023-04-25T04:58:59;27.00;;;15.57;;
10699;SDS011;5401;41.986;21.452;2023-04-25T05:01:27;17.73;;;12.13;;
10699;SDS011;5401;41.986;21.452;2023-04-25T05:03:55;15.73;;;11.50;;
10699;SDS011;5401;41.986;21.452;2023-04-25T05:06:27;28.83;;;15.37;;
10699;SDS011;5401;41.986;21.452;2023-04-25T05:08:55;17.60;;;11.70;;
10699;SDS011;5401;41.986;21.452;2023-04-25T05:11:23;15.93;;;11.77;;
10699;SDS011;5401;41.986;21.452;2023-04-25T05:13:51;14.47;;;11.17;;
10699;SDS011;5401;41.986;21.452;2023-04-25T05:16:19;16.60;;;11.13;;
10699;SDS011;5401;41.986;21.452;2023-04-25T05:18:47;14.87;;;11.10;;
10699;SDS011;5401;41.986;21.452;2023-04-25T05:21:15;22.17;;;10.33;;
10699;SDS011;5401;41.986;21.452;2023-04-25T05:23:43;16.50;;;12.27;;
10699;SDS011;5401;41.986;21.452;2023-04-25T05:26:11;13.53;;;11.20;;
10699;SDS011;5401;41.986;21.452;2023-04-25T05:28:40;18.17;;;11.67;;
10699;SDS011;5401;41.986;21.452;2023-04-25T05:31:09;17.80;;;12.77;;
10699;SDS011;5401;41.986;21.452;2023-04-25T05:33:36;17.13;;;11.57;;
10699;SDS011;5401;41.986;21.452;2023-04-25T05:36:04;16.93;;;13.27;;
10699;SDS011;5401;41.986;21.452;2023-04-25T05:38:32;20.93;;;13.70;;
10699;SDS011;5401;41.986;21.452;2023-04-25T05:41:01;14.80;;;12.60;;
10699;SDS011;5401;41.986;21.452;2023-04-25T05:43:29;16.10;;;12.47;;
10699;SDS011;5401;41.986;21.452;2023-04-25T05:45:56;19.03;;;13.70;;
10699;SDS011;5401;41.986;21.452;2023-04-25T05:48:24;20.80;;;13.80;;
10699;SDS011;5401;41.986;21.452;2023-04-25T05:50:51;19.73;;;14.30;;
10699;SDS011;5401;41.986;21.452;2023-04-25T05:53:19;20.47;;;13.63;;
10699;SDS011;5401;41.986;21.452;2023-04-25T05:55:47;21.90;;;14.90;;
10699;SDS011;5401;41.986;21.452;2023-04-25T05:58:16;20.93;;;14.53;;
10699;SDS011;5401;41.986;21.452;2023-04-25T06:00:44;21.00;;;15.00;;
10699;SDS011;5401;41.986;21.452;2023-04-25T06:03:11;21.20;;;15.73;;
10699;SDS011;5401;41.986;21.452;2023-04-25T06:05:41;20.07;;;16.53;;
10699;SDS011;5401;41.986;21.452;2023-04-25T06:08:08;22.03;;;16.60;;
10699;SDS011;5401;41.986;21.452;2023-04-25T06:10:36;25.50;;;17.60;;
10699;SDS011;5401;41.986;21.452;2023-04-25T06:13:04;26.00;;;18.37;;
10699;SDS011;5401;41.986;21.452;2023-04-25T06:15:33;25.00;;;17.63;;
10699;SDS011;5401;41.986;21.452;2023-04-25T06:18:00;22.23;;;17.77;;
10699;SDS011;5401;41.986;21.452;2023-04-25T06:20:28;22.67;;;18.07;;
10699;SDS011;5401;41.986;21.452;2023-04-25T06:22:56;23.50;;;18.63;;
10699;SDS011;5401;41.986;21.452;2023-04-25T06:25:25;21.93;;;17.93;;
10699;SDS011;5401;41.986;21.452;2023-04-25T06:27:52;21.03;;;16.60;;
10699;SDS011;5401;41.986;21.452;2023-04-25T06:30:20;25.93;;;18.53;;
10699;SDS011;5401;41.986;21.452;2023-04-25T06:32:52;27.73;;;18.60;;
10699;SDS011;5401;41.986;21.452;2023-04-25T06:35:20;22.97;;;17.90;;
10699;SDS011;5401;41.986;21.452;2023-04-25T06:37:47;26.13;;;17.97;;
10699;SDS011;5401;41.986;21.452;2023-04-25T06:40:15;22.70;;;17.73;;
10699;SDS011;5401;41.986;21.452;2023-04-25T06:42:43;20.93;;;17.43;;
10699;SDS011;5401;41.986;21.452;2023-04-25T06:45:10;20.67;;;16.17;;
10699;SDS011;5401;41.986;21.452;2023-04-25T06:47:39;26.53;;;18.13;;
10699;SDS011;5401;41.986;21.452;2023-04-25T06:50:08;40.97;;;23.53;;
10699;SDS011;5401;41.986;21.452;2023-04-25T06:52:36;51.33;;;26.70;;
10699;SDS011;5401;41.986;21.452;2023-04-25T06:55:04;29.37;;;21.67;;
10699;SDS011;5401;41.986;21.452;2023-04-25T06:57:32;29.57;;;20.57;;
10699;SDS011;5401;41.986;21.452;2023-04-25T06:59:59;30.20;;;21.10;;
10699;SDS011;5401;41.986;21.452;2023-04-25T07:02:27;25.00;;;17.17;;
10699;SDS011;5401;41.986;21.452;2023-04-25T07:04:54;19.60;;;14.83;;
10699;SDS011;5401;41.986;21.452;2023-04-25T07:07:26;33.57;;;17.93;;
10699;SDS011;5401;41.986;21.452;2023-04-25T07:09:54;20.93;;;15.13;;
10699;SDS011;5401;41.986;21.452;2023-04-25T07:12:22;23.80;;;16.57;;
10699;SDS011;5401;41.986;21.452;2023-04-25T07:14:49;36.33;;;18.10;;
10699;SDS011;5401;41.986;21.452;2023-04-25T07:17:17;22.00;;;13.53;;
10699;SDS011;5401;41.986;21.452;2023-04-25T07:19:44;22.70;;;12.87;;
10699;SDS011;5401;41.986;21.452;2023-04-25T07:22:12;23.50;;;14.43;;
10699;SDS011;5401;41.986;21.452;2023-04-25T07:24:41;23.27;;;12.10;;
10699;SDS011;5401;41.986;21.452;2023-04-25T07:27:08;20.93;;;11.80;;
10699;SDS011;5401;41.986;21.452;2023-04-25T07:29:36;15.33;;;10.97;;
10699;SDS011;5401;41.986;21.452;2023-04-25T07:32:03;20.87;;;12.40;;
10699;SDS011;5401;41.986;21.452;2023-04-25T07:34:31;12.87;;;10.23;;
10699;SDS011;5401;41.986;21.452;2023-04-25T07:37:02;19.40;;;9.93;;
10699;SDS011;5401;41.986;21.452;2023-04-25T07:39:30;16.50;;;10.87;;
10699;SDS011;5401;41.986;21.452;2023-04-25T07:41:59;20.17;;;9.90;;
10699;SDS011;5401;41.986;21.452;2023-04-25T07:44:27;17.80;;;9.80;;
10699;SDS011;5401;41.986;21.452;2023-04-25T07:46:56;19.40;;;10.97;;
10699;SDS011;5401;41.986;21.452;2023-04-25T07:49:23;10.30;;;8.00;;
10699;SDS011;5401;41.986;21.452;2023-04-25T07:51:51;12.03;;;6.30;;
10699;SDS011;5401;41.986;21.452;2023-04-25T07:54:18;11.07;;;7.17;;
10699;SDS011;5401;41.986;21.452;2023-04-25T07:56:47;9.63;;;4.70;;
10699;SDS011;5401;41.986;21.452;2023-04-25T07:59:15;8.07;;;5.20;;
10699;SDS011;5401;41.986;21.452;2023-04-25T08:01:43;9.47;;;5.80;;
10699;SDS011;5401;41.986;21.452;2023-04-25T08:04:10;19.40;;;8.70;;
10699;SDS011;5401;41.986;21.452;2023-04-25T08:06:38;15.03;;;6.70;;
10699;SDS011;5401;41.986;21.452;2023-04-25T08:09:06;10.13;;;6.33;;
10699;SDS011;5401;41.986;21.452;2023-04-25T08:11:34;15.40;;;8.20;;
10699;SDS011;5401;41.986;21.452;2023-04-25T08:14:01;26.27;;;8.47;;
10699;SDS011;5401;41.986;21.452;2023-04-25T08:16:30;8.20;;;6.30;;
10699;SDS011;5401;41.986;21.452;2023-04-25T08:18:59;13.37;;;7.20;;
10699;SDS011;5401;41.986;21.452;2023-04-25T08:21:26;9.30;;;6.63;;
10699;SDS011;5401;41.986;21.452;2023-04-25T08:23:54;11.80;;;6.50;;
10699;SDS011;5401;41.986;21.452;2023-04-25T08:26:23;6.90;;;5.70;;
10699;SDS011;5401;41.986;21.452;2023-04-25T08:28:50;9.93;;;5.27;;
10699;SDS011;5401;41.986;21.452;2023-04-25T08:31:18;7.33;;;4.70;;
10699;SDS011;5401;41.986;21.452;2023-04-25T08:33:47;15.47;;;6.30;;
10699;SDS011;5401;41.986;21.452;2023-04-25T08:36:16;9.60;;;5.37;;
10699;SDS011;5401;41.986;21.452;2023-04-25T08:38:44;9.47;;;5.70;;
10699;SDS011;5401;41.986;21.452;2023-04-25T08:41:11;8.33;;;5.77;;
10699;SDS011;5401;41.986;21.452;2023-04-25T08:43:42;8.53;;;5.90;;
10699;SDS011;5401;41.986;21.452;2023-04-25T08:46:10;9.97;;;5.23;;
10699;SDS011;5401;41.986;21.452;2023-04-25T08:48:40;6.90;;;5.47;;
10699;SDS011;5401;41.986;21.452;2023-04-25T08:51:12;6.30;;;5.07;;
10699;SDS011;5401;41.986;21.452;2023-04-25T08:53:42;10.00;;;7.30;;
10699;SDS011;5401;41.986;21.452;2023-04-25T08:56:13;8.73;;;6.27;;
10699;SDS011;5401;41.986;21.452;2023-04-25T08:58:43;8.27;;;6.57;;
10699;SDS011;5401;41.986;21.452;2023-04-25T09:01:11;6.43;;;4.97;;
10699;SDS011;5401;41.986;21.452;2023-04-25T09:03:42;7.10;;;4.63;;
10699;SDS011;5401;41.986;21.452;2023-04-25T09:06:15;5.97;;;4.80;;
10699;SDS011;5401;41.986;21.452;2023-04-25T09:08:44;9.17;;;4.23;;
10699;SDS011;5401;41.986;21.452;2023-04-25T09:11:12;6.57;;;4.87;;
10699;SDS011;5401;41.986;21.452;2023-04-25T09:13:40;10.67;;;6.03;;
10699;SDS011;5401;41.986;21.452;2023-04-25T09:16:08;5.93;;;4.63;;
10699;SDS011;5401;41.986;21.452;2023-04-25T09:18:35;5.53;;;4.07;;
10699;SDS011;5401;41.986;21.452;2023-04-25T09:21:07;9.20;;;5.43;;
10699;SDS011;5401;41.986;21.452;2023-04-25T09:23:40;7.67;;;3.93;;
10699;SDS011;5401;41.986;21.452;2023-04-25T09:26:10;6.67;;;4.30;;
10699;SDS011;5401;41.986;21.452;2023-04-25T09:28:42;5.77;;;4.30;;
10699;SDS011;5401;41.986;21.452;2023-04-25T09:31:11;4.67;;;3.50;;
10699;SDS011;5401;41.986;21.452;2023-04-25T09:33:40;8.23;;;3.40;;
10699;SDS011;5401;41.986;21.452;2023-04-25T09:36:08;7.10;;;4.13;;
10699;SDS011;5401;41.986;21.452;2023-04-25T09:38:41;8.10;;;3.70;;
10699;SDS011;5401;41.986;21.452;2023-04-25T09:41:10;5.47;;;3.87;;
10699;SDS011;5401;41.986;21.452;2023-04-25T09:43:38;8.63;;;4.97;;
10699;SDS011;5401;41.986;21.452;2023-04-25T09:46:08;18.97;;;4.57;;
10699;SDS011;5401;41.986;21.452;2023-04-25T09:48:37;8.20;;;4.93;;
10699;SDS011;5401;41.986;21.452;2023-04-25T09:51:05;5.47;;;4.37;;
10699;SDS011;5401;41.986;21.452;2023-04-25T09:53:34;3.90;;;3.20;;
10699;SDS011;5401;41.986;21.452;2023-04-25T09:56:05;22.40;;;18.03;;
10699;SDS011;5401;41.986;21.452;2023-04-25T09:58:35;30.73;;;21.17;;
10699;SDS011;5401;41.986;21.452;2023-04-25T10:01:05;24.80;;;18.10;;
10699;SDS011;5401;41.986;21.452;2023-04-25T10:03:35;3.00;;;2.70;;
10699;SDS011;5401;41.986;21.452;2023-04-25T10:06:06;6.67;;;3.70;;
10699;SDS011;5401;41.986;21.452;2023-04-25T10:08:37;4.60;;;2.70;;
10699;SDS011;5401;41.986;21.452;2023-04-25T10:11:07;3.27;;;2.93;;
10699;SDS011;5401;41.986;21.452;2023-04-25T10:13:35;7.73;;;3.30;;
10699;SDS011;5401;41.986;21.452;2023-04-25T10:16:04;3.07;;;2.73;;
10699;SDS011;5401;41.986;21.452;2023-04-25T10:18:32;5.83;;;2.70;;
10699;SDS011;5401;41.986;21.452;2023-04-25T10:21:00;4.07;;;3.63;;
10699;SDS011;5401;41.986;21.452;2023-04-25T10:23:31;5.53;;;3.00;;
10699;SDS011;5401;41.986;21.452;2023-04-25T10:26:00;3.93;;;3.27;;
10699;SDS011;5401;41.986;21.452;2023-04-25T10:28:29;5.80;;;3.60;;
10699;SDS011;5401;41.986;21.452;2023-04-25T10:31:27;3.87;;;2.80;;
10699;SDS011;5401;41.986;21.452;2023-04-25T10:33:56;4.60;;;3.20;;
10699;SDS011;5401;41.986;21.452;2023-04-25T10:36:24;2.57;;;2.37;;
10699;SDS011;5401;41.986;21.452;2023-04-25T10:38:52;3.27;;;2.70;;
10699;SDS011;5401;41.986;21.452;2023-04-25T10:41:21;8.67;;;3.47;;
10699;SDS011;5401;41.986;21.452;2023-04-25T10:43:58;6.20;;;2.80;;
10699;SDS011;5401;41.986;21.452;2023-04-25T10:46:27;3.13;;;2.53;;
10699;SDS011;5401;41.986;21.452;2023-04-25T10:48:56;5.37;;;3.60;;
10699;SDS011;5401;41.986;21.452;2023-04-25T10:51:25;4.37;;;2.70;;
10699;SDS011;5401;41.986;21.452;2023-04-25T10:53:57;8.20;;;3.17;;
10699;SDS011;5401;41.986;21.452;2023-04-25T10:56:26;6.03;;;3.90;;
10699;SDS011;5401;41.986;21.452;2023-04-25T10:59:08;6.03;;;3.40;;
10699;SDS011;5401;41.986;21.452;2023-04-25T11:01:38;4.83;;;3.27;;
10699;SDS011;5401;41.986;21.452;2023-04-25T11:04:07;3.83;;;2.70;;
10699;SDS011;5401;41.986;21.452;2023-04-25T11:06:50;4.90;;;1.70;;
10699;SDS011;5401;41.986;21.452;2023-04-25T11:09:25;2.73;;;1.97;;
10699;SDS011;5401;41.986;21.452;2023-04-25T11:11:54;3.20;;;1.60;;
10699;SDS011;5401;41.986;21.452;2023-04-25T11:14:23;3.33;;;1.67;;
10699;SDS011;5401;41.986;21.452;2023-04-25T11:16:52;3.00;;;1.80;;
10699;SDS011;5401;41.986;21.452;2023-04-25T11:19:21;1.70;;;1.50;;
10699;SDS011;5401;41.986;21.452;2023-04-25T11:21:49;1.67;;;1.30;;
10699;SDS011;5401;41.986;21.452;2023-04-25T11:24:16;4.17;;;2.63;;
10699;SDS011;5401;41.986;21.452;2023-04-25T11:26:46;1.50;;;1.40;;
10699;SDS011;5401;41.986;21.452;2023-04-25T11:29:14;2.27;;;1.60;;
10699;SDS011;5401;41.986;21.452;2023-04-25T11:31:44;9.37;;;2.97;;
10699;SDS011;5401;41.986;21.452;2023-04-25T11:34:16;2.13;;;1.30;;
10699;SDS011;5401;41.986;21.452;2023-04-25T11:36:44;3.70;;;1.83;;
10699;SDS011;5401;41.986;21.452;2023-04-25T11:39:12;3.80;;;2.00;;
10699;SDS011;5401;41.986;21.452;2023-04-25T11:41:41;1.83;;;1.40;;
10699;SDS011;5401;41.986;21.452;2023-04-25T11:44:09;3.13;;;1.60;;
10699;SDS011;5401;41.986;21.452;2023-04-25T11:46:36;3.03;;;2.30;;
10699;SDS011;5401;41.986;21.452;2023-04-25T11:49:05;7.37;;;1.50;;
10699;SDS011;5401;41.986;21.452;2023-04-25T11:51:37;10.40;;;1.43;;
10699;SDS011;5401;41.986;21.452;2023-04-25T11:54:06;5.90;;;1.93;;
10699;SDS011;5401;41.986;21.452;2023-04-25T11:56:34;3.67;;;1.10;;
10699;SDS011;5401;41.986;21.452;2023-04-25T11:59:01;3.33;;;1.00;;
10699;SDS011;5401;41.986;21.452;2023-04-25T12:01:31;9.17;;;1.80;;
10699;SDS011;5401;41.986;21.452;2023-04-25T12:04:09;2.93;;;1.40;;
10699;SDS011;5401;41.986;21.452;2023-04-25T12:06:39;1.93;;;1.10;;
10699;SDS011;5401;41.986;21.452;2023-04-25T12:09:08;4.47;;;2.13;;
10699;SDS011;5401;41.986;21.452;2023-04-25T12:11:41;6.13;;;1.17;;
10699;SDS011;5401;41.986;21.452;2023-04-25T12:14:09;3.13;;;1.23;;
10699;SDS011;5401;41.986;21.452;2023-04-25T12:16:41;3.70;;;1.80;;
10699;SDS011;5401;41.986;21.452;2023-04-25T12:19:09;5.17;;;1.30;;
10699;SDS011;5401;41.986;21.452;2023-04-25T12:21:38;5.47;;;1.10;;
10699;SDS011;5401;41.986;21.452;2023-04-25T12:24:10;9.63;;;2.20;;
10699;SDS011;5401;41.986;21.452;2023-04-25T12:26:51;4.40;;;1.30;;
10699;SDS011;5401;41.986;21.452;2023-04-25T12:29:20;5.53;;;1.47;;
10699;SDS011;5401;41.986;21.452;2023-04-25T12:31:49;1.77;;;1.30;;
10699;SDS011;5401;41.986;21.452;2023-04-25T12:34:18;4.13;;;1.73;;
10699;SDS011;5401;41.986;21.452;2023-04-25T12:36:47;1.67;;;1.37;;
10699;SDS011;5401;41.986;21.452;2023-04-25T12:39:16;9.07;;;1.63;;
10699;SDS011;5401;41.986;21.452;2023-04-25T12:41:44;3.17;;;1.70;;
10699;SDS011;5401;41.986;21.452;2023-04-25T12:44:12;6.63;;;1.57;;
10699;SDS011;5401;41.986;21.452;2023-04-25T12:46:40;2.57;;;1.83;;
10699;SDS011;5401;41.986;21.452;2023-04-25T12:49:08;6.60;;;1.40;;
10699;SDS011;5401;41.986;21.452;2023-04-25T12:51:35;3.03;;;1.30;;
10699;SDS011;5401;41.986;21.452;2023-04-25T12:54:05;5.83;;;1.87;;
10699;SDS011;5401;41.986;21.452;2023-04-25T12:56:34;1.80;;;1.30;;
10699;SDS011;5401;41.986;21.452;2023-04-25T12:59:01;2.77;;;1.30;;
10699;SDS011;5401;41.986;21.452;2023-04-25T13:01:29;5.23;;;2.07;;
10699;SDS011;5401;41.986;21.452;2023-04-25T13:03:57;4.00;;;1.10;;
10699;SDS011;5401;41.986;21.452;2023-04-25T13:06:25;2.73;;;1.23;;
10699;SDS011;5401;41.986;21.452;2023-04-25T13:08:53;10.40;;;1.53;;
10699;SDS011;5401;41.986;21.452;2023-04-25T13:11:21;1.43;;;1.17;;
10699;SDS011;5401;41.986;21.452;2023-04-25T13:13:49;1.90;;;1.30;;
10699;SDS011;5401;41.986;21.452;2023-04-25T13:16:16;3.00;;;1.27;;
10699;SDS011;5401;41.986;21.452;2023-04-25T13:18:46;3.33;;;2.07;;
10699;SDS011;5401;41.986;21.452;2023-04-25T13:21:13;4.33;;;1.43;;
10699;SDS011;5401;41.986;21.452;2023-04-25T13:23:41;2.00;;;1.30;;
10699;SDS011;5401;41.986;21.452;2023-04-25T13:26:10;2.33;;;2.03;;
10699;SDS011;5401;41.986;21.452;2023-04-25T13:28:39;1.43;;;1.03;;
10699;SDS011;5401;41.986;21.452;2023-04-25T13:31:08;1.77;;;1.20;;
10699;SDS011;5401;41.986;21.452;2023-04-25T13:33:35;3.00;;;1.87;;
10699;SDS011;5401;41.986;21.452;2023-04-25T13:36:03;3.03;;;1.13;;
10699;SDS011;5401;41.986;21.452;2023-04-25T13:38:31;3.43;;;1.23;;
10699;SDS011;5401;41.986;21.452;2023-04-25T13:41:00;1.60;;;1.40;;
10699;SDS011;5401;41.986;21.452;2023-04-25T13:43:28;3.73;;;1.43;;
10699;SDS011;5401;41.986;21.452;2023-04-25T13:45:57;4.60;;;1.80;;
10699;SDS011;5401;41.986;21.452;2023-04-25T13:48:24;3.43;;;1.30;;
10699;SDS011;5401;41.986;21.452;2023-04-25T13:50:52;4.43;;;1.50;;
10699;SDS011;5401;41.986;21.452;2023-04-25T13:53:19;2.23;;;0.93;;
10699;SDS011;5401;41.986;21.452;2023-04-25T13:55:47;1.60;;;1.17;;
10699;SDS011;5401;41.986;21.452;2023-04-25T13:58:14;1.67;;;1.50;;
10699;SDS011;5401;41.986;21.452;2023-04-25T14:00:42;2.07;;;1.30;;
10699;SDS011;5401;41.986;21.452;2023-04-25T14:03:13;4.20;;;1.40;;
10699;SDS011;5401;41.986;21.452;2023-04-25T14:05:40;2.00;;;1.40;;
10699;SDS011;5401;41.986;21.452;2023-04-25T14:08:08;3.03;;;1.13;;
10699;SDS011;5401;41.986;21.452;2023-04-25T14:10:36;5.83;;;1.50;;
10699;SDS011;5401;41.986;21.452;2023-04-25T14:13:04;4.07;;;1.23;;
10699;SDS011;5401;41.986;21.452;2023-04-25T14:15:32;3.20;;;1.50;;
10699;SDS011;5401;41.986;21.452;2023-04-25T14:18:01;1.90;;;1.50;;
10699;SDS011;5401;41.986;21.452;2023-04-25T14:20:30;3.10;;;1.20;;
10699;SDS011;5401;41.986;21.452;2023-04-25T14:22:58;4.43;;;1.33;;
10699;SDS011;5401;41.986;21.452;2023-04-25T14:25:25;2.90;;;1.30;;
10699;SDS011;5401;41.986;21.452;2023-04-25T14:27:54;3.70;;;1.10;;
10699;SDS011;5401;41.986;21.452;2023-04-25T14:30:21;1.83;;;1.40;;
10699;SDS011;5401;41.986;21.452;2023-04-25T14:32:49;1.23;;;0.93;;
10699;SDS011;5401;41.986;21.452;2023-04-25T14:35:17;1.07;;;1.00;;
10699;SDS011;5401;41.986;21.452;2023-04-25T14:37:46;224.33;;;189.83;;
10699;SDS011;5401;41.986;21.452;2023-04-25T14:40:13;751.33;;;542.47;;